This is the latest recevied weather packets stored in our database for station/object DK9XR-14. If no packets are shown the sender has not sent any weather packets the latest 1 day(s).
| Time | Temp. | Humidity | Pressure | Rain* | Wind** | Luminosity | Snow |
|---|---|---|---|---|---|---|---|
| 1777968060 | 15.56° C | 71% | 1010.1 hPa | 0 mm | 0.45 m/s, 175° | - | - |
| 1777967760 | 15.56° C | 72% | 1010.1 hPa | 0 mm | 0 m/s | - | - |
| 1777967460 | 15.56° C | 74% | 1010.2 hPa | 0 mm | 0.45 m/s, 193° | - | - |
| 1777967161 | 15° C | 75% | 1010.3 hPa | 0 mm | 0 m/s | - | - |
| 1777966860 | 15° C | 76% | 1010.3 hPa | 0 mm | 0 m/s | - | - |
| 1777966562 | 15° C | 75% | 1010.4 hPa | 0 mm | 0 m/s | - | - |
| 1777966259 | 15° C | 74% | 1010.3 hPa | 0 mm | 0.89 m/s, 61° | - | - |
| 1777965962 | 15° C | 75% | 1010.4 hPa | 0 mm | 0 m/s | - | - |
| 1777965659 | 15° C | 75% | 1010.6 hPa | 0 mm | 0 m/s | - | - |
| 1777965363 | 15° C | 75% | 1010.6 hPa | 0 mm | 1.34 m/s, 158° | - | - |
| 1777965060 | 15° C | 75% | 1010.6 hPa | 0 mm | 0.89 m/s, 175° | - | - |
| 1777964762 | 14.44° C | 76% | 1010.6 hPa | 0 mm | 0.45 m/s, 165° | - | - |
| 1777964461 | 14.44° C | 77% | 1010.8 hPa | 0 mm | 1.79 m/s, 155° | - | - |
| 1777964160 | 13.89° C | 79% | 1010.8 hPa | 0 mm | 0.89 m/s, 159° | - | - |
| 1777963860 | 13.89° C | 79% | 1010.8 hPa | 0 mm | 0.45 m/s, 257° | - | - |
| 1777963560 | 13.33° C | 80% | 1011.1 hPa | 0 mm | 0.89 m/s, 154° | - | - |
| 1777963260 | 13.33° C | 82% | 1011.1 hPa | 0 mm | 0.89 m/s, 212° | - | - |
| 1777962960 | 12.78° C | 82% | 1011 hPa | 0 mm | 0 m/s | - | - |
| 1777962662 | 12.22° C | 83% | 1011 hPa | 0 mm | 0.89 m/s, 200° | - | - |
| 1777962360 | 12.22° C | 83% | 1011 hPa | 0 mm | 0.45 m/s, 241° | - | - |
| 1777962062 | 11.67° C | 84% | 1011.1 hPa | 0 mm | 0.45 m/s, 192° | - | - |
| 1777961760 | 11.67° C | 84% | 1011 hPa | 0 mm | 0.45 m/s, 159° | - | - |
| 1777961457 | 11.67° C | 84% | 1011 hPa | 0 mm | 0.45 m/s, 192° | - | - |
| 1777961156 | 11.67° C | 83% | 1010.9 hPa | 0 mm | 0.89 m/s, 140° | - | - |
| 1777960858 | 11.67° C | 84% | 1010.9 hPa | 0 mm | 0.45 m/s, 172° | - | - |
* Rain latest hour (hover to see other rain measurements)
** Current wind speed in m/s (hover to see current wind gust speed)